sensor_id;sensor_type;location;lat;lon;timestamp;pressure;altitude;pressure_sealevel;temperature;humidity
55994;BME280;67425;52.126;20.638;2023-02-03T00:00:27;57798.78;;;-144.78;98.15
55994;BME280;67425;52.126;20.638;2023-02-03T00:02:53;57802.94;;;-144.78;98.89
55994;BME280;67425;52.126;20.638;2023-02-03T00:05:19;57792.56;;;-144.78;99.17
55994;BME280;67425;52.126;20.638;2023-02-03T00:07:44;57788.41;;;-144.78;99.09
55994;BME280;67425;52.126;20.638;2023-02-03T00:10:10;57798.78;;;-144.78;99.23
55994;BME280;67425;52.126;20.638;2023-02-03T00:12:35;57780.09;;;-144.78;99.24
55994;BME280;67425;52.126;20.638;2023-02-03T00:15:01;57805.03;;;-144.78;99.17
55994;BME280;67425;52.126;20.638;2023-02-03T00:17:26;57780.09;;;-144.78;98.82
55994;BME280;67425;52.126;20.638;2023-02-03T00:19:51;57784.25;;;-144.78;97.69
55994;BME280;67425;52.126;20.638;2023-02-03T00:22:17;57780.09;;;-144.78;97.85
55994;BME280;67425;52.126;20.638;2023-02-03T00:24:42;57794.63;;;-144.78;98.06
55994;BME280;67425;52.126;20.638;2023-02-03T00:27:07;57807.09;;;-144.78;97.63
55994;BME280;67425;52.126;20.638;2023-02-03T00:29:32;57765.56;;;-144.78;97.50
55994;BME280;67425;52.126;20.638;2023-02-03T00:31:58;57784.25;;;-144.78;97.81
55994;BME280;67425;52.126;20.638;2023-02-03T00:34:27;57825.78;;;-144.78;99.48
55994;BME280;67425;52.126;20.638;2023-02-03T00:36:53;57798.78;;;-144.78;96.91
55994;BME280;67425;52.126;20.638;2023-02-03T00:39:19;57775.94;;;-144.78;96.93
55994;BME280;67425;52.126;20.638;2023-02-03T00:41:44;57813.34;;;-144.78;97.99
55994;BME280;67425;52.126;20.638;2023-02-03T00:44:09;57782.19;;;-144.78;97.57
55994;BME280;67425;52.126;20.638;2023-02-03T00:46:35;57788.41;;;-144.78;97.55
55994;BME280;67425;52.126;20.638;2023-02-03T00:49:01;57782.19;;;-144.78;97.31
55994;BME280;67425;52.126;20.638;2023-02-03T00:51:27;57809.19;;;-144.78;97.05
55994;BME280;67425;52.126;20.638;2023-02-03T00:53:52;57790.47;;;-144.78;97.18
55994;BME280;67425;52.126;20.638;2023-02-03T00:56:17;57792.56;;;-144.78;97.01
55994;BME280;67425;52.126;20.638;2023-02-03T00:58:43;57775.94;;;-144.78;97.66
55994;BME280;67425;52.126;20.638;2023-02-03T01:01:08;57780.09;;;-144.78;97.12
55994;BME280;67425;52.126;20.638;2023-02-03T01:03:34;57796.72;;;-144.78;97.33
55994;BME280;67425;52.126;20.638;2023-02-03T01:06:17;57800.88;;;-144.78;97.63
55994;BME280;67425;52.126;20.638;2023-02-03T01:08:43;57778.03;;;-144.78;98.81
55994;BME280;67425;52.126;20.638;2023-02-03T01:11:12;57802.94;;;-144.78;97.69
55994;BME280;67425;52.126;20.638;2023-02-03T01:13:38;57788.41;;;-144.78;96.27
55994;BME280;67425;52.126;20.638;2023-02-03T01:16:07;57815.41;;;-144.78;97.29
55994;BME280;67425;52.126;20.638;2023-02-03T01:18:32;57790.47;;;-144.78;97.47
55994;BME280;67425;52.126;20.638;2023-02-03T01:20:57;57802.94;;;-144.78;95.88
55994;BME280;67425;52.126;20.638;2023-02-03T01:23:28;57782.19;;;-144.78;95.66
55994;BME280;67425;52.126;20.638;2023-02-03T01:25:53;57778.03;;;-144.78;95.61
55994;BME280;67425;52.126;20.638;2023-02-03T01:28:18;57786.34;;;-144.78;96.03
55994;BME280;67425;52.126;20.638;2023-02-03T01:30:44;57775.94;;;-144.78;96.29
55994;BME280;67425;52.126;20.638;2023-02-03T01:33:09;57817.47;;;-144.78;96.39
55994;BME280;67425;52.126;20.638;2023-02-03T01:35:34;57798.78;;;-144.78;95.26
55994;BME280;67425;52.126;20.638;2023-02-03T01:38:00;57780.09;;;-144.78;95.88
55994;BME280;67425;52.126;20.638;2023-02-03T01:40:25;57798.78;;;-144.78;95.75
55994;BME280;67425;52.126;20.638;2023-02-03T01:42:51;57775.94;;;-144.78;94.55
55994;BME280;67425;52.126;20.638;2023-02-03T01:45:18;57771.78;;;-144.78;93.29
55994;BME280;67425;52.126;20.638;2023-02-03T01:47:54;57798.78;;;-144.78;94.17
55994;BME280;67425;52.126;20.638;2023-02-03T01:50:24;57782.19;;;-144.78;94.29
55994;BME280;67425;52.126;20.638;2023-02-03T01:52:57;57782.19;;;-144.78;94.60
55994;BME280;67425;52.126;20.638;2023-02-03T01:55:27;57786.34;;;-144.78;94.18
55994;BME280;67425;52.126;20.638;2023-02-03T01:58:02;57811.25;;;-144.78;93.10
55994;BME280;67425;52.126;20.638;2023-02-03T02:00:29;57763.47;;;-144.78;92.93
55994;BME280;67425;52.126;20.638;2023-02-03T02:02:57;57775.94;;;-144.78;94.15
55994;BME280;67425;52.126;20.638;2023-02-03T02:08:02;57794.63;;;-144.78;96.22
55994;BME280;67425;52.126;20.638;2023-02-03T02:10:29;57834.09;;;-144.78;99.05
55994;BME280;67425;52.126;20.638;2023-02-03T02:12:56;57840.34;;;-144.78;99.19
55994;BME280;67425;52.126;20.638;2023-02-03T02:36:29;57829.94;;;-144.78;98.86
55994;BME280;67425;52.126;20.638;2023-02-03T02:39:08;57834.09;;;-144.78;96.97
55994;BME280;67425;52.126;20.638;2023-02-03T02:41:45;57798.78;;;-144.78;96.29
55994;BME280;67425;52.126;20.638;2023-02-03T02:44:22;57815.41;;;-144.78;95.55
55994;BME280;67425;52.126;20.638;2023-02-03T02:46:53;57794.63;;;-144.78;94.90
55994;BME280;67425;52.126;20.638;2023-02-03T02:52:27;57817.47;;;-144.78;94.74
55994;BME280;67425;52.126;20.638;2023-02-03T02:54:58;57823.72;;;-144.78;95.19
55994;BME280;67425;52.126;20.638;2023-02-03T02:57:27;57815.41;;;-144.78;94.79
55994;BME280;67425;52.126;20.638;2023-02-03T02:59:54;57784.25;;;-144.78;95.07
55994;BME280;67425;52.126;20.638;2023-02-03T03:02:20;57825.78;;;-144.78;94.82
55994;BME280;67425;52.126;20.638;2023-02-03T03:04:47;57807.09;;;-144.78;94.33
55994;BME280;67425;52.126;20.638;2023-02-03T03:07:21;57813.34;;;-144.78;94.91
55994;BME280;67425;52.126;20.638;2023-02-03T03:09:52;57796.72;;;-144.78;94.96
55994;BME280;67425;52.126;20.638;2023-02-03T03:12:25;57794.63;;;-144.78;94.93
55994;BME280;67425;52.126;20.638;2023-02-03T03:14:58;57790.47;;;-144.78;96.71
55994;BME280;67425;52.126;20.638;2023-02-03T03:17:31;57825.78;;;-144.78;99.00
55994;BME280;67425;52.126;20.638;2023-02-03T03:20:02;57846.56;;;-144.78;99.51
55994;BME280;67425;52.126;20.638;2023-02-03T03:22:33;57840.34;;;-144.78;99.59
55994;BME280;67425;52.126;20.638;2023-02-03T03:25:05;57829.94;;;-144.78;98.97
55994;BME280;67425;52.126;20.638;2023-02-03T03:27:41;57829.94;;;-144.78;99.43
55994;BME280;67425;52.126;20.638;2023-02-03T03:30:11;57825.78;;;-144.78;97.80
55994;BME280;67425;52.126;20.638;2023-02-03T03:32:38;57836.19;;;-144.78;97.27
55994;BME280;67425;52.126;20.638;2023-02-03T03:35:05;57796.72;;;-144.78;97.93
55994;BME280;67425;52.126;20.638;2023-02-03T03:37:43;57809.19;;;-144.78;97.71
55994;BME280;67425;52.126;20.638;2023-02-03T03:40:14;57796.72;;;-144.78;97.77
55994;BME280;67425;52.126;20.638;2023-02-03T03:42:50;57796.72;;;-144.78;97.41
55994;BME280;67425;52.126;20.638;2023-02-03T03:45:26;57842.41;;;-144.78;98.29
55994;BME280;67425;52.126;20.638;2023-02-03T03:50:22;57834.09;;;-144.78;97.65
55994;BME280;67425;52.126;20.638;2023-02-03T03:52:51;57829.94;;;-144.78;98.23
55994;BME280;67425;52.126;20.638;2023-02-03T03:55:18;57813.34;;;-144.78;97.78
55994;BME280;67425;52.126;20.638;2023-02-03T04:00:19;57827.88;;;-144.78;98.15
55994;BME280;67425;52.126;20.638;2023-02-03T04:02:50;57807.09;;;-144.78;98.07
55994;BME280;67425;52.126;20.638;2023-02-03T04:05:16;57802.94;;;-144.78;99.54
55994;BME280;67425;52.126;20.638;2023-02-03T04:07:44;57825.78;;;-144.78;99.62
55994;BME280;67425;52.126;20.638;2023-02-03T04:10:20;57848.63;;;-144.78;100.00
55994;BME280;67425;52.126;20.638;2023-02-03T04:12:46;57825.78;;;-144.78;100.00
55994;BME280;67425;52.126;20.638;2023-02-03T04:15:11;57842.41;;;-144.78;100.00
55994;BME280;67425;52.126;20.638;2023-02-03T04:17:36;57854.88;;;-144.78;100.00
55994;BME280;67425;52.126;20.638;2023-02-03T04:20:03;57850.72;;;-144.78;100.00
55994;BME280;67425;52.126;20.638;2023-02-03T04:22:28;57802.94;;;-144.78;100.00
55994;BME280;67425;52.126;20.638;2023-02-03T04:24:54;57794.63;;;-144.78;100.00
55994;BME280;67425;52.126;20.638;2023-02-03T04:27:23;57836.19;;;-144.78;100.00
55994;BME280;67425;52.126;20.638;2023-02-03T04:29:48;57817.47;;;-144.78;99.77
55994;BME280;67425;52.126;20.638;2023-02-03T04:32:14;57834.09;;;-144.78;99.72
55994;BME280;67425;52.126;20.638;2023-02-03T04:34:40;57805.03;;;-144.78;99.66
55994;BME280;67425;52.126;20.638;2023-02-03T04:37:05;57815.41;;;-144.78;100.00
55994;BME280;67425;52.126;20.638;2023-02-03T04:39:30;57821.63;;;-144.78;100.00
55994;BME280;67425;52.126;20.638;2023-02-03T04:41:56;57813.34;;;-144.78;100.00
55994;BME280;67425;52.126;20.638;2023-02-03T04:44:21;57817.47;;;-144.78;100.00
55994;BME280;67425;52.126;20.638;2023-02-03T04:46:46;57840.34;;;-144.78;100.00
55994;BME280;67425;52.126;20.638;2023-02-03T04:49:12;57856.94;;;-144.78;100.00
55994;BME280;67425;52.126;20.638;2023-02-03T04:51:37;57823.72;;;-144.78;100.00
55994;BME280;67425;52.126;20.638;2023-02-03T04:54:02;57869.41;;;-144.78;100.00
55994;BME280;67425;52.126;20.638;2023-02-03T04:56:28;57848.63;;;-144.78;100.00
55994;BME280;67425;52.126;20.638;2023-02-03T04:58:53;57809.19;;;-144.78;100.00
55994;BME280;67425;52.126;20.638;2023-02-03T05:01:18;57832.03;;;-144.78;100.00
55994;BME280;67425;52.126;20.638;2023-02-03T05:03:44;57829.94;;;-144.78;100.00
55994;BME280;67425;52.126;20.638;2023-02-03T05:06:09;57829.94;;;-144.78;100.00
55994;BME280;67425;52.126;20.638;2023-02-03T05:08:34;57859.03;;;-144.78;100.00
55994;BME280;67425;52.126;20.638;2023-02-03T05:11:00;57840.34;;;-144.78;100.00
55994;BME280;67425;52.126;20.638;2023-02-03T05:13:25;57805.03;;;-144.78;100.00
55994;BME280;67425;52.126;20.638;2023-02-03T05:15:51;57798.78;;;-144.78;100.00
55994;BME280;67425;52.126;20.638;2023-02-03T05:18:16;57805.03;;;-144.78;99.55
55994;BME280;67425;52.126;20.638;2023-02-03T05:20:42;57836.19;;;-144.78;100.00
55994;BME280;67425;52.126;20.638;2023-02-03T05:23:07;57834.09;;;-144.78;99.41
55994;BME280;67425;52.126;20.638;2023-02-03T05:25:32;57838.25;;;-144.78;100.00
55994;BME280;67425;52.126;20.638;2023-02-03T05:27:58;57827.88;;;-144.78;99.44
55994;BME280;67425;52.126;20.638;2023-02-03T05:30:23;57829.94;;;-144.78;99.35
55994;BME280;67425;52.126;20.638;2023-02-03T05:32:48;57836.19;;;-144.78;99.10
55994;BME280;67425;52.126;20.638;2023-02-03T05:35:14;57815.41;;;-144.78;98.35
55994;BME280;67425;52.126;20.638;2023-02-03T05:37:39;57805.03;;;-144.78;98.26
55994;BME280;67425;52.126;20.638;2023-02-03T05:40:05;57817.47;;;-144.78;98.34
55994;BME280;67425;52.126;20.638;2023-02-03T05:42:49;57800.88;;;-144.78;98.21
55994;BME280;67425;52.126;20.638;2023-02-03T05:45:15;57819.56;;;-144.78;97.56
55994;BME280;67425;52.126;20.638;2023-02-03T05:47:41;57832.03;;;-144.78;98.13
55994;BME280;67425;52.126;20.638;2023-02-03T05:50:07;57813.34;;;-144.78;97.87
55994;BME280;67425;52.126;20.638;2023-02-03T05:52:32;57842.41;;;-144.78;98.50
55994;BME280;67425;52.126;20.638;2023-02-03T05:54:57;57836.19;;;-144.78;98.18
55994;BME280;67425;52.126;20.638;2023-02-03T05:57:23;57838.25;;;-144.78;97.88
55994;BME280;67425;52.126;20.638;2023-02-03T05:59:48;57848.63;;;-144.78;98.54
55994;BME280;67425;52.126;20.638;2023-02-03T06:02:14;57838.25;;;-144.78;98.62
55994;BME280;67425;52.126;20.638;2023-02-03T06:04:39;57827.88;;;-144.78;98.85
55994;BME280;67425;52.126;20.638;2023-02-03T06:07:05;57821.63;;;-144.78;99.16
55994;BME280;67425;52.126;20.638;2023-02-03T06:09:30;57834.09;;;-144.78;99.19
55994;BME280;67425;52.126;20.638;2023-02-03T06:11:56;57832.03;;;-144.78;100.00
55994;BME280;67425;52.126;20.638;2023-02-03T06:14:21;57836.19;;;-144.78;100.00
55994;BME280;67425;52.126;20.638;2023-02-03T06:16:46;57819.56;;;-144.78;100.00
55994;BME280;67425;52.126;20.638;2023-02-03T06:19:12;57823.72;;;-144.78;100.00
55994;BME280;67425;52.126;20.638;2023-02-03T06:21:37;57836.19;;;-144.78;100.00
55994;BME280;67425;52.126;20.638;2023-02-03T06:24:02;57850.72;;;-144.78;100.00
55994;BME280;67425;52.126;20.638;2023-02-03T06:26:28;57850.72;;;-144.78;100.00
55994;BME280;67425;52.126;20.638;2023-02-03T06:28:53;57877.72;;;-144.78;100.00
55994;BME280;67425;52.126;20.638;2023-02-03T06:31:19;57854.88;;;-144.78;100.00
55994;BME280;67425;52.126;20.638;2023-02-03T06:33:44;57852.78;;;-144.78;100.00
55994;BME280;67425;52.126;20.638;2023-02-03T06:36:09;57854.88;;;-144.78;100.00
55994;BME280;67425;52.126;20.638;2023-02-03T06:38:35;57838.25;;;-144.78;100.00
55994;BME280;67425;52.126;20.638;2023-02-03T06:41:00;57840.34;;;-144.78;100.00
55994;BME280;67425;52.126;20.638;2023-02-03T06:43:25;57848.63;;;-144.78;100.00
55994;BME280;67425;52.126;20.638;2023-02-03T06:45:51;57879.78;;;-144.78;100.00
55994;BME280;67425;52.126;20.638;2023-02-03T06:48:16;57815.41;;;-144.78;100.00
55994;BME280;67425;52.126;20.638;2023-02-03T06:50:42;57846.56;;;-144.78;100.00
55994;BME280;67425;52.126;20.638;2023-02-03T06:53:07;57846.56;;;-144.78;100.00
55994;BME280;67425;52.126;20.638;2023-02-03T06:55:32;57823.72;;;-144.78;100.00
55994;BME280;67425;52.126;20.638;2023-02-03T06:57:58;57840.34;;;-144.78;100.00
55994;BME280;67425;52.126;20.638;2023-02-03T07:00:23;57844.47;;;-144.78;100.00
55994;BME280;67425;52.126;20.638;2023-02-03T07:02:56;57834.09;;;-144.78;100.00
55994;BME280;67425;52.126;20.638;2023-02-03T07:05:22;57838.25;;;-144.78;100.00
55994;BME280;67425;52.126;20.638;2023-02-03T07:07:49;57829.94;;;-144.78;99.92
55994;BME280;67425;52.126;20.638;2023-02-03T07:10:15;57819.56;;;-144.78;99.68
55994;BME280;67425;52.126;20.638;2023-02-03T07:12:40;57807.09;;;-144.78;100.00
55994;BME280;67425;52.126;20.638;2023-02-03T07:15:06;57840.34;;;-144.78;100.00
55994;BME280;67425;52.126;20.638;2023-02-03T07:17:32;57842.41;;;-144.78;100.00
55994;BME280;67425;52.126;20.638;2023-02-03T07:19:57;57811.25;;;-144.78;99.73
55994;BME280;67425;52.126;20.638;2023-02-03T07:22:23;57829.94;;;-144.78;99.92
55994;BME280;67425;52.126;20.638;2023-02-03T07:24:48;57850.72;;;-144.78;100.00
55994;BME280;67425;52.126;20.638;2023-02-03T07:27:13;57823.72;;;-144.78;99.82
55994;BME280;67425;52.126;20.638;2023-02-03T07:29:39;57846.56;;;-144.78;99.81
55994;BME280;67425;52.126;20.638;2023-02-03T07:32:04;57809.19;;;-144.78;100.00
55994;BME280;67425;52.126;20.638;2023-02-03T07:34:29;57813.34;;;-144.78;98.62
55994;BME280;67425;52.126;20.638;2023-02-03T07:36:56;57794.63;;;-144.78;97.73
55994;BME280;67425;52.126;20.638;2023-02-03T07:39:21;57825.78;;;-144.78;97.85
55994;BME280;67425;52.126;20.638;2023-02-03T07:41:46;57809.19;;;-144.78;97.28
55994;BME280;67425;52.126;20.638;2023-02-03T07:44:12;57802.94;;;-144.78;97.25
55994;BME280;67425;52.126;20.638;2023-02-03T07:46:38;57813.34;;;-144.78;97.16
55994;BME280;67425;52.126;20.638;2023-02-03T07:49:11;57790.47;;;-144.78;96.60
55994;BME280;67425;52.126;20.638;2023-02-03T07:51:37;57813.34;;;-144.78;96.67
55994;BME280;67425;52.126;20.638;2023-02-03T07:54:03;57823.72;;;-144.78;96.78
55994;BME280;67425;52.126;20.638;2023-02-03T07:56:28;57790.47;;;-144.78;94.92
55994;BME280;67425;52.126;20.638;2023-02-03T07:58:54;57811.25;;;-144.78;95.30
55994;BME280;67425;52.126;20.638;2023-02-03T08:01:20;57802.94;;;-144.78;95.37
55994;BME280;67425;52.126;20.638;2023-02-03T08:03:46;57794.63;;;-144.78;94.99
55994;BME280;67425;52.126;20.638;2023-02-03T08:06:11;57786.34;;;-144.78;94.67
55994;BME280;67425;52.126;20.638;2023-02-03T08:08:36;57798.78;;;-144.78;94.77
55994;BME280;67425;52.126;20.638;2023-02-03T08:11:02;57790.47;;;-144.78;94.74
55994;BME280;67425;52.126;20.638;2023-02-03T08:13:27;57771.78;;;-144.78;94.14
55994;BME280;67425;52.126;20.638;2023-02-03T08:15:53;57784.25;;;-144.78;93.89
55994;BME280;67425;52.126;20.638;2023-02-03T08:18:18;57792.56;;;-144.78;94.26
55994;BME280;67425;52.126;20.638;2023-02-03T08:20:45;57784.25;;;-144.78;93.56
55994;BME280;67425;52.126;20.638;2023-02-03T08:23:11;57757.25;;;-144.78;91.70
55994;BME280;67425;52.126;20.638;2023-02-03T08:25:36;57755.19;;;-144.78;91.54
55994;BME280;67425;52.126;20.638;2023-02-03T08:28:02;57773.88;;;-144.78;91.00
55994;BME280;67425;52.126;20.638;2023-02-03T08:30:27;57771.78;;;-144.78;89.94
55994;BME280;67425;52.126;20.638;2023-02-03T08:32:52;57775.94;;;-144.78;89.47
55994;BME280;67425;52.126;20.638;2023-02-03T08:35:18;57759.34;;;-144.78;90.30
55994;BME280;67425;52.126;20.638;2023-02-03T08:37:43;57794.63;;;-144.78;90.51
55994;BME280;67425;52.126;20.638;2023-02-03T08:40:10;57767.63;;;-144.78;89.92
55994;BME280;67425;52.126;20.638;2023-02-03T08:42:36;57780.09;;;-144.78;89.94
55994;BME280;67425;52.126;20.638;2023-02-03T08:45:02;57780.09;;;-144.78;89.60
55994;BME280;67425;52.126;20.638;2023-02-03T08:47:28;57753.09;;;-144.78;88.68
55994;BME280;67425;52.126;20.638;2023-02-03T08:49:53;57715.72;;;-144.78;87.79
55994;BME280;67425;52.126;20.638;2023-02-03T08:52:18;57763.47;;;-144.78;87.27
55994;BME280;67425;52.126;20.638;2023-02-03T08:54:45;57730.25;;;-144.78;86.45
55994;BME280;67425;52.126;20.638;2023-02-03T08:57:10;57719.88;;;-144.78;86.36
55994;BME280;67425;52.126;20.638;2023-02-03T08:59:39;57767.63;;;-144.78;87.17
55994;BME280;67425;52.126;20.638;2023-02-03T09:02:07;57763.47;;;-144.78;86.37
55994;BME280;67425;52.126;20.638;2023-02-03T09:04:34;57761.41;;;-144.78;86.72
55994;BME280;67425;52.126;20.638;2023-02-03T09:07:00;57728.19;;;-144.78;86.28
55994;BME280;67425;52.126;20.638;2023-02-03T09:09:26;57759.34;;;-144.78;87.13
55994;BME280;67425;52.126;20.638;2023-02-03T09:11:53;57746.88;;;-144.78;87.54
55994;BME280;67425;52.126;20.638;2023-02-03T09:14:24;57759.34;;;-144.78;87.07
55994;BME280;67425;52.126;20.638;2023-02-03T09:16:51;57746.88;;;-144.78;86.61
55994;BME280;67425;52.126;20.638;2023-02-03T09:19:17;57753.09;;;-144.78;86.03
55994;BME280;67425;52.126;20.638;2023-02-03T09:21:42;57744.78;;;-144.78;86.16
55994;BME280;67425;52.126;20.638;2023-02-03T09:24:08;57759.34;;;-144.78;87.28
55994;BME280;67425;52.126;20.638;2023-02-03T09:26:33;57780.09;;;-144.78;87.74
55994;BME280;67425;52.126;20.638;2023-02-03T09:28:58;57759.34;;;-144.78;87.82
55994;BME280;67425;52.126;20.638;2023-02-03T09:31:24;57742.72;;;-144.78;86.50
55994;BME280;67425;52.126;20.638;2023-02-03T09:33:49;57730.25;;;-144.78;86.30
55994;BME280;67425;52.126;20.638;2023-02-03T09:36:14;57765.56;;;-144.78;86.16
55994;BME280;67425;52.126;20.638;2023-02-03T09:38:40;57730.25;;;-144.78;85.86
55994;BME280;67425;52.126;20.638;2023-02-03T09:44:03;57709.50;;;-144.78;85.33
55994;BME280;67425;52.126;20.638;2023-02-03T09:46:37;57746.88;;;-144.78;85.48
55994;BME280;67425;52.126;20.638;2023-02-03T09:49:14;57711.56;;;-144.78;85.28
55994;BME280;67425;52.126;20.638;2023-02-03T09:51:46;57742.72;;;-144.78;85.20
55994;BME280;67425;52.126;20.638;2023-02-03T09:57:04;57738.56;;;-144.78;84.89
55994;BME280;67425;52.126;20.638;2023-02-03T09:59:32;57763.47;;;-144.78;86.72
55994;BME280;67425;52.126;20.638;2023-02-03T10:04:37;57736.50;;;-144.78;86.58
55994;BME280;67425;52.126;20.638;2023-02-03T10:07:12;57726.09;;;-144.78;85.50
55994;BME280;67425;52.126;20.638;2023-02-03T10:09:49;57742.72;;;-144.78;85.35
55994;BME280;67425;52.126;20.638;2023-02-03T10:12:46;57713.63;;;-144.78;86.81
55994;BME280;67425;52.126;20.638;2023-02-03T10:15:44;57721.94;;;-144.78;85.42
55994;BME280;67425;52.126;20.638;2023-02-03T10:18:23;57740.63;;;-144.78;85.92
55994;BME280;67425;52.126;20.638;2023-02-03T10:20:53;57767.63;;;-144.78;86.20
55994;BME280;67425;52.126;20.638;2023-02-03T10:23:26;57748.94;;;-144.78;85.78
55994;BME280;67425;52.126;20.638;2023-02-03T10:25:54;57721.94;;;-144.78;85.08
55994;BME280;67425;52.126;20.638;2023-02-03T10:28:23;57738.56;;;-144.78;86.33
55994;BME280;67425;52.126;20.638;2023-02-03T10:30:56;57742.72;;;-144.78;86.14
55994;BME280;67425;52.126;20.638;2023-02-03T10:33:25;57761.41;;;-144.78;86.37
55994;BME280;67425;52.126;20.638;2023-02-03T10:35:54;57748.94;;;-144.78;86.11
55994;BME280;67425;52.126;20.638;2023-02-03T10:41:02;57709.50;;;-144.78;85.64
55994;BME280;67425;52.126;20.638;2023-02-03T10:43:28;57744.78;;;-144.78;84.51
55994;BME280;67425;52.126;20.638;2023-02-03T10:46:15;57740.63;;;-144.78;84.56
55994;BME280;67425;52.126;20.638;2023-02-03T10:48:41;57736.50;;;-144.78;85.29
55994;BME280;67425;52.126;20.638;2023-02-03T10:51:19;57740.63;;;-144.78;86.18
55994;BME280;67425;52.126;20.638;2023-02-03T10:53:45;57726.09;;;-144.78;85.57
55994;BME280;67425;52.126;20.638;2023-02-03T10:56:15;57728.19;;;-144.78;83.47
55994;BME280;67425;52.126;20.638;2023-02-03T10:58:57;57746.88;;;-144.78;85.16
55994;BME280;67425;52.126;20.638;2023-02-03T11:01:26;57742.72;;;-144.78;84.38
55994;BME280;67425;52.126;20.638;2023-02-03T11:03:59;57742.72;;;-144.78;84.87
55994;BME280;67425;52.126;20.638;2023-02-03T11:06:26;57751.03;;;-144.78;84.38
55994;BME280;67425;52.126;20.638;2023-02-03T11:08:51;57734.41;;;-144.78;85.62
55994;BME280;67425;52.126;20.638;2023-02-03T11:11:31;57730.25;;;-144.78;85.10
55994;BME280;67425;52.126;20.638;2023-02-03T11:16:26;57717.78;;;-144.78;84.38
55994;BME280;67425;52.126;20.638;2023-02-03T11:18:59;57711.56;;;-144.78;84.75
55994;BME280;67425;52.126;20.638;2023-02-03T11:24:04;57759.34;;;-144.78;85.13
55994;BME280;67425;52.126;20.638;2023-02-03T11:26:38;57721.94;;;-144.78;84.81
55994;BME280;67425;52.126;20.638;2023-02-03T11:29:12;57711.56;;;-144.78;85.07
55994;BME280;67425;52.126;20.638;2023-02-03T11:31:39;57746.88;;;-144.78;85.04
55994;BME280;67425;52.126;20.638;2023-02-03T11:34:15;57755.19;;;-144.78;86.77
55994;BME280;67425;52.126;20.638;2023-02-03T11:36:41;57711.56;;;-144.78;85.72
55994;BME280;67425;52.126;20.638;2023-02-03T11:39:10;57697.03;;;-144.78;84.51
55994;BME280;67425;52.126;20.638;2023-02-03T11:41:40;57732.34;;;-144.78;86.52
55994;BME280;67425;52.126;20.638;2023-02-03T11:44:25;57726.09;;;-144.78;86.21
55994;BME280;67425;52.126;20.638;2023-02-03T11:47:13;57736.50;;;-144.78;86.30
55994;BME280;67425;52.126;20.638;2023-02-03T11:49:57;57726.09;;;-144.78;85.67
55994;BME280;67425;52.126;20.638;2023-02-03T11:55:38;57717.78;;;-144.78;86.14
55994;BME280;67425;52.126;20.638;2023-02-03T12:03:43;57707.41;;;-144.78;84.26
55994;BME280;67425;52.126;20.638;2023-02-03T12:22:37;57738.56;;;-144.78;85.79
55994;BME280;67425;52.126;20.638;2023-02-03T12:25:45;57744.78;;;-144.78;85.91
55994;BME280;67425;52.126;20.638;2023-02-03T12:28:29;57738.56;;;-144.78;85.92
55994;BME280;67425;52.126;20.638;2023-02-03T12:31:29;57753.09;;;-144.78;88.66
55994;BME280;67425;52.126;20.638;2023-02-03T12:34:27;57744.78;;;-144.78;88.23
55994;BME280;67425;52.126;20.638;2023-02-03T12:36:57;57742.72;;;-144.78;88.96
55994;BME280;67425;52.126;20.638;2023-02-03T12:39:57;57746.88;;;-144.78;90.46
55994;BME280;67425;52.126;20.638;2023-02-03T12:42:28;57755.19;;;-144.78;91.01
55994;BME280;67425;52.126;20.638;2023-02-03T12:47:33;57778.03;;;-144.78;94.29
55994;BME280;67425;52.126;20.638;2023-02-03T12:50:16;57734.41;;;-144.78;94.30
55994;BME280;67425;52.126;20.638;2023-02-03T12:55:20;57755.19;;;-144.78;95.55
55994;BME280;67425;52.126;20.638;2023-02-03T12:57:49;57746.88;;;-144.78;97.83
55994;BME280;67425;52.126;20.638;2023-02-03T13:00:33;57775.94;;;-144.78;99.46
55994;BME280;67425;52.126;20.638;2023-02-03T13:03:48;57748.94;;;-144.78;99.08
55994;BME280;67425;52.126;20.638;2023-02-03T13:09:02;57796.72;;;-144.78;100.00
55994;BME280;67425;52.126;20.638;2023-02-03T13:11:40;57780.09;;;-144.78;100.00
55994;BME280;67425;52.126;20.638;2023-02-03T13:14:35;57767.63;;;-144.78;100.00
55994;BME280;67425;52.126;20.638;2023-02-03T13:17:36;57780.09;;;-144.78;100.00
55994;BME280;67425;52.126;20.638;2023-02-03T13:20:00;57786.34;;;-144.78;100.00
55994;BME280;67425;52.126;20.638;2023-02-03T13:22:28;57769.72;;;-144.78;100.00
55994;BME280;67425;52.126;20.638;2023-02-03T13:25:03;57778.03;;;-144.78;100.00
55994;BME280;67425;52.126;20.638;2023-02-03T13:30:24;57802.94;;;-144.78;100.00
55994;BME280;67425;52.126;20.638;2023-02-03T13:38:30;57798.78;;;-144.78;100.00
55994;BME280;67425;52.126;20.638;2023-02-03T13:41:19;57784.25;;;-144.78;100.00
55994;BME280;67425;52.126;20.638;2023-02-03T13:43:49;57786.34;;;-144.78;100.00
55994;BME280;67425;52.126;20.638;2023-02-03T13:46:23;57782.19;;;-144.78;100.00
55994;BME280;67425;52.126;20.638;2023-02-03T13:48:49;57778.03;;;-144.78;100.00
55994;BME280;67425;52.126;20.638;2023-02-03T13:51:24;57790.47;;;-144.78;100.00
55994;BME280;67425;52.126;20.638;2023-02-03T13:53:59;57792.56;;;-144.78;100.00
55994;BME280;67425;52.126;20.638;2023-02-03T13:56:27;57792.56;;;-144.78;100.00
55994;BME280;67425;52.126;20.638;2023-02-03T14:01:40;57827.88;;;-144.78;100.00
55994;BME280;67425;52.126;20.638;2023-02-03T14:07:01;57802.94;;;-144.78;100.00
55994;BME280;67425;52.126;20.638;2023-02-03T14:14:44;57807.09;;;-144.78;100.00
55994;BME280;67425;52.126;20.638;2023-02-03T14:20:07;57823.72;;;-144.78;100.00